Time;durP1;ratioP1;P1;durP2;ratioP2;P2;SDS_P1;SDS_P2;PMS_P1;PMS_P2;Temp;Humidity;BMP_temperature;BMP_pressure;BME280_temperature;BME280_humidity;BME280_pressure;Samples;Min_cycle;Max_cycle;Signal;HPM_P1;HPM_P2
2023/11/04 00:02:18;;;;;;;3.67;1.60;;;4.50;99.90;;;;;;4992079;28;20643;-66
2023/11/04 00:04:46;;;;;;;1.70;1.52;;;4.50;99.90;;;;;;4992924;28;20215;-66
2023/11/04 00:07:12;;;;;;;1.30;1.20;;;4.50;99.90;;;;;;4988803;28;20210;-66
2023/11/04 00:09:39;;;;;;;5.43;1.50;;;4.50;99.90;;;;;;4991890;28;20227;-66
2023/11/04 00:12:06;;;;;;;3.63;1.33;;;4.50;99.90;;;;;;4992477;28;20234;-66
2023/11/04 00:14:33;;;;;;;1.45;1.35;;;4.50;99.90;;;;;;4992474;28;20207;-66
2023/11/04 04:32:12;;;;;;;1.30;1.20;;;3.00;99.90;;;;;;5253881;23;20280;-66
2023/11/04 04:34:39;;;;;;;1.30;1.05;;;2.90;99.90;;;;;;4971529;28;20667;-66
2023/11/04 04:37:07;;;;;;;1.33;1.17;;;2.90;99.90;;;;;;4972617;28;20302;-66
2023/11/04 04:39:33;;;;;;;1.48;1.10;;;2.90;99.90;;;;;;4972985;28;20208;-66
2023/11/04 04:42:00;;;;;;;1.25;1.10;;;2.90;99.90;;;;;;4958581;28;20700;-66
2023/11/04 04:44:29;;;;;;;1.08;0.98;;;2.90;99.90;;;;;;4953347;29;20215;-66
2023/11/04 04:46:57;;;;;;;1.10;1.00;;;2.80;99.90;;;;;;4952965;29;20410;-66
2023/11/04 04:49:25;;;;;;;2.38;1.25;;;2.80;99.90;;;;;;4953440;29;20323;-66
2023/11/04 04:51:52;;;;;;;1.40;1.10;;;2.90;99.90;;;;;;4953287;28;20621;-66
2023/11/04 04:54:18;;;;;;;1.55;1.20;;;2.80;99.90;;;;;;4952790;28;20216;-66
2023/11/04 04:56:46;;;;;;;1.50;1.20;;;2.80;99.90;;;;;;4952863;29;20572;-66
2023/11/04 04:59:13;;;;;;;2.55;1.02;;;2.80;99.90;;;;;;4953124;29;20205;-66
2023/11/04 05:01:40;;;;;;;1.20;1.00;;;2.90;99.90;;;;;;4953206;28;20224;-66
2023/11/04 05:04:07;;;;;;;1.20;1.10;;;2.80;99.90;;;;;;4953340;29;20283;-65
2023/11/04 05:06:35;;;;;;;1.35;1.00;;;2.90;99.90;;;;;;4952261;29;20230;-65
2023/11/04 05:09:03;;;;;;;2.15;1.10;;;2.90;99.90;;;;;;4953121;29;20583;-66
2023/11/04 05:11:29;;;;;;;1.75;0.82;;;2.90;99.90;;;;;;4952879;28;20260;-66
2023/11/04 05:13:56;;;;;;;1.00;0.80;;;2.90;99.90;;;;;;4953042;29;20204;-66
2023/11/04 05:16:23;;;;;;;1.40;0.98;;;2.90;99.90;;;;;;4952718;29;20212;-65
2023/11/04 05:18:50;;;;;;;1.13;1.00;;;2.90;99.90;;;;;;4952537;29;20571;-66
2023/11/04 05:21:18;;;;;;;2.28;1.40;;;2.90;99.90;;;;;;4952810;28;20255;-65
2023/11/04 05:23:46;;;;;;;2.10;1.25;;;2.90;99.90;;;;;;4952904;29;20636;-66
2023/11/04 05:26:13;;;;;;;1.55;1.23;;;2.90;99.90;;;;;;4952781;28;20231;-66
2023/11/04 05:28:40;;;;;;;1.27;1.17;;;3.00;99.90;;;;;;4952527;29;20204;-65
2023/11/04 05:31:07;;;;;;;2.17;1.10;;;3.00;99.90;;;;;;4952717;29;20611;-66
2023/11/04 05:33:34;;;;;;;1.00;0.90;;;3.10;99.90;;;;;;4951959;29;20216;-66
2023/11/04 05:36:01;;;;;;;1.45;1.20;;;3.10;99.90;;;;;;4952884;29;20212;-66
2023/11/04 05:38:27;;;;;;;2.63;1.15;;;3.20;99.90;;;;;;4952295;28;20223;-65
2023/11/04 05:40:55;;;;;;;1.00;0.90;;;3.20;99.90;;;;;;4951643;29;20663;-66
2023/11/04 05:43:22;;;;;;;1.17;1.08;;;3.20;99.90;;;;;;4952777;29;20209;-65
2023/11/04 05:45:50;;;;;;;1.25;1.15;;;3.30;99.90;;;;;;4952500;29;20553;-66
2023/11/04 05:48:19;;;;;;;1.20;1.10;;;3.30;99.90;;;;;;4951895;28;20576;-66
2023/11/04 05:50:46;;;;;;;1.00;0.90;;;3.40;99.90;;;;;;4952208;29;20235;-66
2023/11/04 05:53:13;;;;;;;1.70;1.40;;;3.40;99.90;;;;;;4952674;29;20215;-65
2023/11/04 05:55:40;;;;;;;1.05;0.93;;;3.50;99.90;;;;;;4952311;29;20259;-65
2023/11/04 05:58:08;;;;;;;1.45;1.35;;;3.50;99.90;;;;;;4952402;29;20279;-65
2023/11/04 06:00:36;;;;;;;0.90;0.80;;;3.50;99.90;;;;;;4951329;29;20225;-65
2023/11/04 06:03:03;;;;;;;2.35;1.30;;;3.60;99.90;;;;;;4952679;29;20581;-65
2023/11/04 06:05:30;;;;;;;1.50;1.30;;;3.60;99.90;;;;;;4952215;28;20217;-65
2023/11/04 06:07:57;;;;;;;1.38;1.25;;;3.60;99.90;;;;;;4955622;29;20216;-65
2023/11/04 06:10:24;;;;;;;1.13;0.98;;;3.60;99.90;;;;;;4955891;29;20224;-65
2023/11/04 06:12:52;;;;;;;1.50;1.40;;;3.60;99.90;;;;;;4956223;29;20215;-64
2023/11/04 06:15:20;;;;;;;1.10;1.00;;;3.60;99.90;;;;;;4956025;29;20232;-64
2023/11/04 06:17:47;;;;;;;1.40;1.20;;;3.50;99.90;;;;;;4949617;29;20558;-65
2023/11/04 06:20:14;;;;;;;1.20;1.10;;;3.50;99.90;;;;;;4956280;28;20205;-65
2023/11/04 06:22:40;;;;;;;1.10;0.82;;;3.50;99.90;;;;;;4955966;29;20204;-65
2023/11/04 06:25:08;;;;;;;1.40;1.23;;;3.50;99.90;;;;;;4956144;29;20209;-65
2023/11/04 06:27:35;;;;;;;1.10;1.00;;;3.50;99.90;;;;;;4954061;29;20212;-65
2023/11/04 06:30:02;;;;;;;1.08;0.95;;;3.40;99.90;;;;;;4956124;29;20288;-65
2023/11/04 06:32:30;;;;;;;1.13;1.02;;;3.40;99.90;;;;;;4955704;28;20236;-65
2023/11/04 06:34:58;;;;;;;1.42;1.20;;;3.40;99.90;;;;;;4955876;28;20227;-65
2023/11/04 06:37:24;;;;;;;1.30;1.13;;;3.40;99.90;;;;;;4955150;29;20219;-65
2023/11/04 06:39:51;;;;;;;1.45;1.35;;;3.60;99.90;;;;;;4955939;28;20918;-65
2023/11/04 06:42:20;;;;;;;2.28;1.05;;;3.70;99.90;;;;;;4955893;28;20801;-65
2023/11/04 06:44:47;;;;;;;1.83;1.33;;;3.80;99.90;;;;;;4955653;29;20205;-65
2023/11/04 06:47:14;;;;;;;1.50;1.40;;;3.80;99.90;;;;;;4954697;29;20464;-64
2023/11/04 06:49:42;;;;;;;1.10;1.00;;;3.80;99.90;;;;;;4955534;29;20215;-64
2023/11/04 06:52:08;;;;;;;1.50;0.98;;;3.80;99.90;;;;;;4955864;29;20228;-65
2023/11/04 06:54:36;;;;;;;2.30;1.05;;;3.80;99.90;;;;;;4953728;29;20598;-65
2023/11/04 06:57:02;;;;;;;1.20;1.10;;;3.70;99.90;;;;;;4955290;28;20204;-65
2023/11/04 06:59:29;;;;;;;1.70;1.27;;;3.60;99.90;;;;;;4955211;28;20317;-65
2023/11/04 07:01:56;;;;;;;1.15;1.00;;;3.60;99.90;;;;;;4955462;28;20232;-65
2023/11/04 07:04:22;;;;;;;1.55;0.95;;;3.60;99.90;;;;;;4955371;29;20748;-64
2023/11/04 07:06:52;;;;;;;1.25;1.15;;;3.60;99.90;;;;;;4954604;29;20239;-64
2023/11/04 07:09:19;;;;;;;1.15;1.02;;;3.50;99.90;;;;;;4955316;29;20216;-65
2023/11/04 07:11:46;;;;;;;1.35;1.20;;;3.60;99.90;;;;;;4954821;29;20239;-64
2023/11/04 07:14:14;;;;;;;1.67;1.20;;;3.60;99.90;;;;;;4955368;29;20224;-65
2023/11/04 07:16:40;;;;;;;1.15;1.05;;;3.60;99.90;;;;;;4954332;28;20211;-64
2023/11/04 07:19:07;;;;;;;1.20;0.95;;;3.70;99.90;;;;;;4954934;29;20328;-65
2023/11/04 07:21:37;;;;;;;1.30;1.10;;;3.70;99.90;;;;;;4954684;29;20235;-65
2023/11/04 07:24:06;;;;;;;3.80;1.13;;;3.90;99.90;;;;;;4955305;28;20201;-65
2023/11/04 07:26:32;;;;;;;0.95;0.82;;;4.10;99.90;;;;;;4954459;28;20212;-64
2023/11/04 07:28:59;;;;;;;1.30;1.20;;;4.50;99.90;;;;;;4955017;29;20602;-65
2023/11/04 07:31:26;;;;;;;1.08;0.98;;;4.80;99.90;;;;;;4954796;29;20231;-65
2023/11/04 07:33:53;;;;;;;1.10;1.00;;;5.10;99.90;;;;;;4954905;28;20344;-65
2023/11/04 07:36:24;;;;;;;1.40;1.00;;;5.40;99.90;;;;;;4954441;28;20706;-65
2023/11/04 07:38:52;;;;;;;1.50;1.17;;;5.60;99.90;;;;;;4954344;28;20213;-64
2023/11/04 07:41:20;;;;;;;1.30;1.17;;;5.70;99.90;;;;;;4954842;28;20592;-65
2023/11/04 07:43:48;;;;;;;0.95;0.85;;;5.80;99.90;;;;;;4954264;29;20206;-65
2023/11/04 07:46:14;;;;;;;0.82;0.80;;;6.00;99.90;;;;;;4954491;28;20217;-65
2023/11/04 07:48:41;;;;;;;1.15;0.90;;;6.20;99.90;;;;;;4954213;28;20214;-65
2023/11/04 07:51:08;;;;;;;1.00;0.85;;;6.40;99.90;;;;;;4954466;28;20288;-65
2023/11/04 07:53:35;;;;;;;1.52;1.13;;;6.60;99.90;;;;;;4951865;29;20645;-65
2023/11/04 07:56:02;;;;;;;1.33;0.95;;;6.80;99.90;;;;;;4954400;29;20230;-64
2023/11/04 07:58:30;;;;;;;1.67;1.00;;;6.90;99.90;;;;;;4954253;29;20218;-64
2023/11/04 08:00:57;;;;;;;0.80;0.73;;;7.10;99.90;;;;;;4954544;28;20217;-65
2023/11/04 08:03:24;;;;;;;1.10;1.00;;;7.30;99.90;;;;;;4954566;28;20299;-65
2023/11/04 08:05:51;;;;;;;1.10;0.90;;;7.50;99.90;;;;;;4953894;29;20211;-64
2023/11/04 08:08:19;;;;;;;1.10;1.00;;;7.60;99.90;;;;;;4954078;29;20756;-64
2023/11/04 08:10:46;;;;;;;0.90;0.70;;;7.70;99.90;;;;;;4954021;29;20231;-67
2023/11/04 08:13:13;;;;;;;1.27;1.17;;;7.90;99.90;;;;;;4954343;29;20258;-63
2023/11/04 08:15:41;;;;;;;1.70;0.88;;;8.70;99.90;;;;;;4953925;29;20235;-64
2023/11/04 08:18:08;;;;;;;1.70;1.10;;;9.60;99.90;;;;;;4953897;29;20700;-65
2023/11/04 08:20:35;;;;;;;1.52;1.00;;;10.60;99.90;;;;;;4949462;29;20229;-64
2023/11/04 08:23:02;;;;;;;1.83;1.02;;;11.30;99.90;;;;;;4953792;29;20260;-64
2023/11/04 08:25:31;;;;;;;1.10;1.00;;;11.90;99.90;;;;;;4953703;28;20220;-64
2023/11/04 08:27:58;;;;;;;1.38;1.00;;;12.20;99.90;;;;;;4952917;29;20215;-64
2023/11/04 08:30:25;;;;;;;1.33;0.90;;;12.30;99.90;;;;;;4952868;28;20262;-65
2023/11/04 08:32:54;;;;;;;1.85;1.30;;;11.80;99.90;;;;;;4953296;29;20216;-64
2023/11/04 08:35:20;;;;;;;1.50;1.00;;;11.20;99.90;;;;;;4953176;29;20212;-64
2023/11/04 08:37:48;;;;;;;4.60;1.30;;;10.60;99.90;;;;;;4952999;29;20215;-65
2023/11/04 08:40:15;;;;;;;1.05;0.95;;;10.30;99.90;;;;;;4953754;29;20213;-65
2023/11/04 08:42:41;;;;;;;1.35;1.00;;;10.00;99.90;;;;;;4953118;29;20239;-64
2023/11/04 08:45:12;;;;;;;1.33;1.17;;;9.90;99.90;;;;;;4953746;29;20208;-65
2023/11/04 08:47:40;;;;;;;1.90;1.30;;;9.80;99.90;;;;;;4950344;29;20733;-64
2023/11/04 08:50:09;;;;;;;1.90;0.90;;;10.00;99.90;;;;;;4953197;28;20307;-65
2023/11/04 08:52:38;;;;;;;2.38;1.63;;;10.30;99.90;;;;;;4949908;29;20307;-64
2023/11/04 08:55:07;;;;;;;1.30;1.10;;;10.60;99.90;;;;;;4953181;28;20419;-64
2023/11/04 08:57:34;;;;;;;1.65;1.10;;;10.80;99.90;;;;;;4952451;28;20212;-65
2023/11/04 09:00:05;;;;;;;1.05;0.95;;;11.00;99.90;;;;;;4952951;28;20201;-65
2023/11/04 09:02:32;;;;;;;1.00;0.90;;;11.30;99.90;;;;;;4953270;28;20640;-65
2023/11/04 09:05:00;;;;;;;1.30;1.17;;;11.40;99.90;;;;;;4952340;29;20255;-65
2023/11/04 09:07:29;;;;;;;2.17;0.85;;;11.30;99.90;;;;;;4952690;28;20215;-65
2023/11/04 09:09:58;;;;;;;1.63;1.15;;;11.10;99.90;;;;;;4952885;28;20204;-65
2023/11/04 09:12:25;;;;;;;1.02;0.93;;;11.00;99.90;;;;;;4952844;28;20291;-65
2023/11/04 09:14:52;;;;;;;1.55;0.90;;;11.30;99.90;;;;;;4952380;29;20215;-64
2023/11/04 09:17:19;;;;;;;3.28;1.42;;;11.60;99.90;;;;;;4952483;29;20220;-64
2023/11/04 09:19:46;;;;;;;0.93;0.82;;;11.70;99.90;;;;;;4952163;29;20210;-64
2023/11/04 09:22:13;;;;;;;1.90;0.90;;;11.70;99.90;;;;;;4952974;28;20228;-64
2023/11/04 09:24:41;;;;;;;1.20;1.00;;;11.50;99.90;;;;;;4952457;29;20815;-64
2023/11/04 09:27:08;;;;;;;1.30;0.90;;;11.30;99.90;;;;;;4951967;29;20212;-65
2023/11/04 09:29:35;;;;;;;1.08;0.95;;;11.30;99.90;;;;;;4949298;29;20762;-64
2023/11/04 09:32:02;;;;;;;1.20;0.93;;;11.00;99.90;;;;;;4951804;29;20228;-65
2023/11/04 09:34:29;;;;;;;1.63;0.80;;;10.80;99.90;;;;;;4952330;29;20212;-65
2023/11/04 09:36:55;;;;;;;1.27;0.88;;;10.70;99.90;;;;;;4952032;29;20243;-65
2023/11/04 09:39:22;;;;;;;1.17;0.90;;;10.60;99.90;;;;;;4952776;29;20216;-65
2023/11/04 09:41:51;;;;;;;1.05;0.90;;;10.60;99.90;;;;;;4952324;29;20719;-65
2023/11/04 09:44:18;;;;;;;1.90;1.20;;;10.60;99.90;;;;;;4952731;29;20216;-65
2023/11/04 09:46:46;;;;;;;0.95;0.85;;;10.80;99.90;;;;;;4950929;29;20218;-65
2023/11/04 09:49:13;;;;;;;2.05;1.02;;;11.10;99.90;;;;;;4952552;28;20654;-65
2023/11/04 09:51:40;;;;;;;0.90;0.70;;;11.80;99.90;;;;;;4952456;29;20225;-65
2023/11/04 09:54:10;;;;;;;1.75;1.20;;;12.30;99.90;;;;;;4951716;28;20459;-65
2023/11/04 09:56:37;;;;;;;1.30;1.00;;;12.50;99.90;;;;;;4948833;29;20214;-65
2023/11/04 09:59:07;;;;;;;1.40;1.00;;;12.80;99.90;;;;;;4952467;29;20211;-64
2023/11/04 10:01:34;;;;;;;1.25;1.15;;;13.10;99.90;;;;;;4952895;29;20239;-65
2023/11/04 10:04:01;;;;;;;1.40;1.17;;;13.20;99.90;;;;;;4951341;29;20207;-66
2023/11/04 10:06:29;;;;;;;1.13;0.90;;;13.40;99.90;;;;;;4952125;28;20472;-65
2023/11/04 10:08:55;;;;;;;1.50;1.38;;;13.40;99.90;;;;;;4949918;28;20282;-65
2023/11/04 10:11:22;;;;;;;1.10;1.00;;;13.00;99.90;;;;;;4950979;29;20239;-65
2023/11/04 10:13:49;;;;;;;1.00;0.90;;;12.30;99.90;;;;;;4951532;29;20471;-65
2023/11/04 10:16:18;;;;;;;1.70;1.10;;;11.60;99.90;;;;;;4952147;29;20293;-65
2023/11/04 10:18:48;;;;;;;1.00;0.90;;;11.40;99.90;;;;;;4951121;29;20214;-65
2023/11/04 10:21:18;;;;;;;1.10;0.90;;;11.20;99.90;;;;;;4951771;29;20489;-65
2023/11/04 10:23:45;;;;;;;1.70;1.60;;;11.00;99.90;;;;;;4951846;29;20660;-65
2023/11/04 10:26:13;;;;;;;1.10;0.93;;;10.70;99.90;;;;;;4949323;29;20222;-66
2023/11/04 10:28:40;;;;;;;1.35;0.98;;;10.50;99.90;;;;;;4952063;28;20210;-64
2023/11/04 10:31:07;;;;;;;1.40;1.08;;;10.30;99.90;;;;;;4951495;29;20766;-65
2023/11/04 10:33:37;;;;;;;1.15;0.80;;;10.10;99.90;;;;;;4951837;29;20238;-64
2023/11/04 10:36:05;;;;;;;1.10;0.85;;;10.00;99.90;;;;;;4951785;28;20215;-65
2023/11/04 10:38:35;;;;;;;1.58;0.90;;;9.80;99.90;;;;;;4951883;29;20216;-64
2023/11/04 10:41:04;;;;;;;1.30;0.95;;;9.60;99.90;;;;;;4951517;29;20233;-64
2023/11/04 10:43:38;;;;;;;1.02;0.93;;;9.50;99.90;;;;;;4952002;28;20209;-64
2023/11/04 10:46:10;;;;;;;1.38;1.02;;;9.40;99.90;;;;;;4951642;29;24240;-64
2023/11/04 10:48:44;;;;;;;1.15;1.05;;;9.40;99.90;;;;;;4947532;29;20232;-65
2023/11/04 10:51:16;;;;;;;1.05;0.82;;;9.30;99.90;;;;;;4951718;29;20255;-64
2023/11/04 10:53:53;;;;;;;2.88;1.00;;;9.20;99.90;;;;;;4954329;28;20220;-65
2023/11/04 10:56:25;;;;;;;1.00;0.90;;;9.10;99.90;;;;;;4953359;29;20215;-65
2023/11/04 10:59:02;;;;;;;1.20;0.90;;;9.00;99.90;;;;;;4954841;29;20227;-65
2023/11/04 11:01:30;;;;;;;1.92;1.20;;;9.00;99.90;;;;;;4954959;29;20231;-65
2023/11/04 11:04:00;;;;;;;0.93;0.73;;;8.90;99.90;;;;;;4954714;29;20216;-64
2023/11/04 11:06:28;;;;;;;4.00;1.70;;;8.90;99.90;;;;;;4955121;29;20217;-64
2023/11/04 11:08:54;;;;;;;2.13;1.20;;;8.90;99.90;;;;;;4954300;29;20219;-64
2023/11/04 11:11:27;;;;;;;1.30;0.98;;;8.90;99.90;;;;;;4955255;29;20232;-66
2023/11/04 11:13:58;;;;;;;1.52;1.23;;;9.00;99.90;;;;;;4954876;29;20209;-64
2023/11/04 11:16:25;;;;;;;1.00;0.90;;;9.00;99.90;;;;;;4953812;29;20590;-64
2023/11/04 11:18:52;;;;;;;1.25;1.00;;;9.10;99.90;;;;;;4954397;28;20204;-64
2023/11/04 11:21:21;;;;;;;6.10;1.10;;;9.20;99.90;;;;;;4955059;28;20232;-64
2023/11/04 11:23:48;;;;;;;1.10;1.00;;;9.20;99.90;;;;;;4954822;28;20267;-64
2023/11/04 11:26:15;;;;;;;1.90;1.30;;;9.20;99.90;;;;;;4954551;28;21340;-64
2023/11/04 11:28:43;;;;;;;1.45;1.17;;;9.20;99.90;;;;;;4953672;28;20259;-64
2023/11/04 11:31:11;;;;;;;1.40;0.95;;;9.20;99.90;;;;;;4953985;29;20295;-64
2023/11/04 11:33:38;;;;;;;1.10;1.00;;;9.20;99.90;;;;;;4954912;29;20208;-64
2023/11/04 11:36:09;;;;;;;1.35;0.98;;;9.20;99.90;;;;;;4954035;29;20212;-64
2023/11/04 11:38:40;;;;;;;0.80;0.70;;;9.20;99.90;;;;;;4949412;29;20291;-65
2023/11/04 11:41:10;;;;;;;1.70;1.25;;;9.30;99.90;;;;;;4954420;29;20228;-64
2023/11/04 11:43:37;;;;;;;1.17;1.02;;;9.30;99.90;;;;;;4949705;29;20204;-64
2023/11/04 11:46:05;;;;;;;1.05;0.95;;;9.30;99.90;;;;;;4953477;29;20670;-64
2023/11/04 11:48:36;;;;;;;1.27;0.90;;;9.30;99.90;;;;;;4954336;28;20232;-64
2023/11/04 11:51:04;;;;;;;1.13;0.85;;;9.30;99.90;;;;;;4954152;28;20244;-64
2023/11/04 11:53:32;;;;;;;1.23;0.90;;;9.40;99.90;;;;;;4954043;28;20242;-64
2023/11/04 11:56:02;;;;;;;1.20;0.90;;;9.30;99.90;;;;;;4953926;29;20205;-64
2023/11/04 11:58:31;;;;;;;1.55;1.10;;;9.40;99.90;;;;;;4953973;29;20212;-64
2023/11/04 12:00:59;;;;;;;1.38;1.00;;;9.30;99.90;;;;;;4953892;29;20260;-65
2023/11/04 12:03:26;;;;;;;1.20;0.77;;;9.30;99.90;;;;;;4953968;28;20205;-64
2023/11/04 12:05:53;;;;;;;0.82;0.70;;;9.30;99.90;;;;;;4953592;29;20588;-64
2023/11/04 12:08:20;;;;;;;0.90;0.77;;;9.20;99.90;;;;;;4953677;29;20209;-65
2023/11/04 12:10:46;;;;;;;2.40;1.40;;;9.20;99.90;;;;;;4954272;29;20224;-64
2023/11/04 12:13:14;;;;;;;1.40;0.97;;;9.20;99.90;;;;;;4953468;29;20224;-63
2023/11/04 12:15:42;;;;;;;1.90;1.17;;;9.20;99.90;;;;;;4953825;29;20209;-65
2023/11/04 12:18:09;;;;;;;0.98;0.77;;;9.10;99.90;;;;;;4953283;28;20236;-64
2023/11/04 12:20:37;;;;;;;1.33;0.90;;;9.20;99.90;;;;;;4948209;29;20680;-64
2023/11/04 12:23:06;;;;;;;0.95;0.82;;;9.10;99.90;;;;;;4953315;29;20201;-64
2023/11/04 12:25:33;;;;;;;1.52;0.88;;;9.10;99.90;;;;;;4952949;29;20700;-65
2023/11/04 12:28:01;;;;;;;2.28;1.13;;;9.10;99.90;;;;;;4953437;29;20288;-65
2023/11/04 12:30:29;;;;;;;5.40;1.20;;;9.10;99.90;;;;;;4954147;28;20264;-64
2023/11/04 12:32:58;;;;;;;1.35;1.05;;;9.10;99.90;;;;;;4953131;29;20217;-64
2023/11/04 12:35:25;;;;;;;0.80;0.73;;;9.10;99.90;;;;;;4951809;29;20268;-65
2023/11/04 12:37:53;;;;;;;0.80;0.77;;;9.20;99.90;;;;;;4950753;29;20205;-65
2023/11/04 12:40:21;;;;;;;1.08;0.80;;;9.20;99.90;;;;;;4947933;29;20208;-65
2023/11/04 12:42:49;;;;;;;1.65;1.52;;;9.20;99.90;;;;;;4949881;29;20596;-66
2023/11/04 12:45:16;;;;;;;1.13;0.90;;;9.20;99.90;;;;;;4949428;29;20247;-65
2023/11/04 12:47:44;;;;;;;1.23;1.10;;;9.20;99.90;;;;;;4949230;29;20634;-67
2023/11/04 12:50:16;;;;;;;1.02;0.80;;;9.20;99.90;;;;;;4948591;28;20644;-66
2023/11/04 12:52:44;;;;;;;1.48;1.02;;;9.20;99.90;;;;;;4948162;28;20228;-65
2023/11/04 12:55:11;;;;;;;1.30;0.90;;;9.20;99.90;;;;;;4948680;29;20259;-65
2023/11/04 12:57:39;;;;;;;1.00;0.88;;;9.20;99.90;;;;;;4949742;29;20222;-65
2023/11/04 13:00:09;;;;;;;0.90;0.70;;;9.20;99.90;;;;;;4948547;29;20212;-65
2023/11/04 13:02:36;;;;;;;1.73;0.95;;;9.20;99.90;;;;;;4943356;29;20617;-65
2023/11/04 13:05:06;;;;;;;2.40;1.05;;;9.20;99.90;;;;;;4949398;29;20630;-65
2023/11/04 13:07:33;;;;;;;1.23;0.90;;;9.10;99.90;;;;;;4949090;28;20686;-65
2023/11/04 13:09:59;;;;;;;0.90;0.80;;;9.10;99.90;;;;;;4950148;29;20225;-65
2023/11/04 13:12:26;;;;;;;0.90;0.80;;;9.10;99.90;;;;;;4950112;29;20228;-65
2023/11/04 13:14:54;;;;;;;0.93;0.73;;;9.00;99.90;;;;;;4952485;28;20207;-65
2023/11/04 13:17:21;;;;;;;1.00;0.80;;;9.00;99.90;;;;;;4952445;28;20597;-66
2023/11/04 13:19:48;;;;;;;1.20;0.90;;;9.00;99.90;;;;;;4953315;29;20209;-65
2023/11/04 13:22:17;;;;;;;2.85;1.25;;;8.90;99.90;;;;;;4953423;29;20278;-65
2023/11/04 13:24:44;;;;;;;1.38;1.00;;;8.80;99.90;;;;;;4952984;29;20207;-65
2023/11/04 13:27:11;;;;;;;0.93;0.80;;;8.80;99.90;;;;;;4951870;29;20585;-65
2023/11/04 13:29:39;;;;;;;1.27;1.15;;;8.80;99.90;;;;;;4953032;28;20213;-65
2023/11/04 13:32:08;;;;;;;1.00;0.90;;;8.80;99.90;;;;;;4952146;29;20701;-65
2023/11/04 13:34:35;;;;;;;1.00;0.90;;;8.70;99.90;;;;;;4952809;29;20205;-65
2023/11/04 13:37:02;;;;;;;1.77;0.80;;;8.70;99.90;;;;;;4952163;29;20204;-65
2023/11/04 13:39:31;;;;;;;0.80;0.70;;;8.70;99.90;;;;;;4952564;28;20242;-64
2023/11/04 13:41:58;;;;;;;0.80;0.70;;;8.70;99.90;;;;;;4952558;29;20232;-64
2023/11/04 13:44:25;;;;;;;1.02;0.90;;;8.70;99.90;;;;;;4952407;29;20567;-64
2023/11/04 13:46:51;;;;;;;0.88;0.77;;;8.70;99.90;;;;;;4952145;29;20213;-64
2023/11/04 13:49:18;;;;;;;1.30;0.70;;;8.70;99.90;;;;;;4952253;29;20236;-64
2023/11/04 13:51:45;;;;;;;1.23;0.87;;;8.60;99.90;;;;;;4952655;29;20228;-65
2023/11/04 13:54:12;;;;;;;1.10;0.80;;;8.60;99.90;;;;;;4951368;29;20445;-65
2023/11/04 13:56:40;;;;;;;1.00;0.90;;;8.50;99.90;;;;;;4952231;29;20216;-65
2023/11/04 13:59:08;;;;;;;1.45;1.00;;;8.50;99.90;;;;;;4951777;29;20582;-65
2023/11/04 14:01:35;;;;;;;0.90;0.80;;;8.60;99.90;;;;;;4952436;29;20269;-65
2023/11/04 14:04:02;;;;;;;1.10;0.90;;;8.50;99.90;;;;;;4952407;29;20200;-65
2023/11/04 14:06:28;;;;;;;1.13;1.02;;;8.50;99.90;;;;;;4952131;29;20204;-64
2023/11/04 14:08:55;;;;;;;1.50;1.00;;;8.50;99.90;;;;;;4952013;29;20220;-64
2023/11/04 14:11:22;;;;;;;1.67;1.00;;;8.50;99.90;;;;;;4952255;29;20240;-65
2023/11/04 14:13:50;;;;;;;1.27;1.17;;;8.40;99.90;;;;;;4952315;29;20237;-64
2023/11/04 14:16:17;;;;;;;1.02;0.90;;;8.40;99.90;;;;;;4951763;29;20564;-65
2023/11/04 14:18:44;;;;;;;1.63;1.10;;;8.40;99.90;;;;;;4952191;29;20201;-66
2023/11/04 14:21:11;;;;;;;1.70;0.95;;;8.30;99.90;;;;;;4951780;29;20610;-66
2023/11/04 14:23:38;;;;;;;1.33;1.00;;;8.30;99.90;;;;;;4952231;29;20265;-66
2023/11/04 14:26:06;;;;;;;0.95;0.85;;;8.30;99.90;;;;;;4951985;28;20640;-64
2023/11/04 14:28:32;;;;;;;1.02;0.93;;;8.20;99.90;;;;;;4954893;29;20658;-64
2023/11/04 14:31:01;;;;;;;0.98;0.90;;;8.20;99.90;;;;;;4955226;29;20740;-65
2023/11/04 14:33:27;;;;;;;1.00;0.85;;;8.20;99.90;;;;;;4955837;29;20233;-64
2023/11/04 14:35:55;;;;;;;1.00;0.90;;;8.20;99.90;;;;;;4955852;29;20224;-64
2023/11/04 14:38:22;;;;;;;0.90;0.80;;;8.20;99.90;;;;;;4955130;29;20562;-66
2023/11/04 14:40:49;;;;;;;1.20;0.80;;;8.20;99.90;;;;;;4955945;29;20570;-66
2023/11/04 14:43:16;;;;;;;1.08;0.90;;;8.20;99.90;;;;;;4955437;29;20205;-66
2023/11/04 14:45:43;;;;;;;1.65;1.15;;;8.30;99.90;;;;;;4953018;28;20673;-66
2023/11/04 14:48:11;;;;;;;1.67;1.33;;;8.30;99.90;;;;;;4952168;29;20236;-66
2023/11/04 14:50:40;;;;;;;0.95;0.85;;;8.30;99.90;;;;;;4948328;29;20225;-66
2023/11/04 14:53:08;;;;;;;1.20;1.10;;;8.30;99.90;;;;;;4955440;28;20216;-63
2023/11/04 14:55:35;;;;;;;1.63;1.30;;;8.30;99.90;;;;;;4956098;29;20213;-64
2023/11/04 14:58:02;;;;;;;1.50;0.90;;;8.30;99.90;;;;;;4956261;29;20200;-64
2023/11/04 15:00:29;;;;;;;1.02;0.80;;;8.30;99.90;;;;;;4955961;28;20218;-64
2023/11/04 15:02:56;;;;;;;1.20;1.00;;;8.30;99.90;;;;;;4955144;29;20300;-64
2023/11/04 15:05:24;;;;;;;1.38;0.93;;;8.30;99.90;;;;;;4953771;29;20247;-64
2023/11/04 15:07:51;;;;;;;1.15;1.00;;;8.30;99.90;;;;;;4954799;29;20293;-66
2023/11/04 15:10:18;;;;;;;1.60;1.02;;;8.30;99.90;;;;;;4954766;28;20677;-65
2023/11/04 15:12:46;;;;;;;1.15;0.98;;;8.30;99.90;;;;;;4955902;29;20305;-64
2023/11/04 15:15:13;;;;;;;0.90;0.70;;;8.30;99.90;;;;;;4955193;29;20216;-66
2023/11/04 15:17:40;;;;;;;1.30;0.90;;;8.30;99.90;;;;;;4954770;29;20225;-66
2023/11/04 15:20:09;;;;;;;0.90;0.80;;;8.30;99.90;;;;;;4955307;29;20204;-66
2023/11/04 15:22:37;;;;;;;0.80;0.80;;;8.30;99.90;;;;;;4954911;28;20651;-66
2023/11/04 15:25:05;;;;;;;3.58;0.90;;;8.30;99.90;;;;;;4954775;29;20220;-66
2023/11/04 15:27:32;;;;;;;3.28;1.00;;;8.40;99.90;;;;;;4954252;29;20648;-66
2023/11/04 15:30:00;;;;;;;1.00;0.90;;;8.40;99.90;;;;;;4954780;29;20211;-66
2023/11/04 15:32:27;;;;;;;1.38;0.82;;;8.30;99.90;;;;;;4954397;28;20232;-65
2023/11/04 15:34:54;;;;;;;1.45;1.10;;;8.30;99.90;;;;;;4954556;29;20201;-66
2023/11/04 15:37:22;;;;;;;1.40;0.90;;;8.20;99.90;;;;;;4953968;29;20218;-66
2023/11/04 15:39:51;;;;;;;1.30;1.05;;;8.20;99.90;;;;;;4954700;28;20340;-66
2023/11/04 15:42:18;;;;;;;1.00;0.82;;;8.20;99.90;;;;;;4954450;28;20789;-66
2023/11/04 15:44:45;;;;;;;1.05;0.95;;;8.20;99.90;;;;;;4954496;29;20283;-66
2023/11/04 15:47:12;;;;;;;0.80;0.70;;;8.20;99.90;;;;;;4953867;29;20970;-66
2023/11/04 15:49:38;;;;;;;1.00;0.80;;;8.20;99.90;;;;;;4954543;29;20232;-66
2023/11/04 15:52:06;;;;;;;1.10;0.90;;;8.30;99.90;;;;;;4954189;28;20231;-66
2023/11/04 15:54:33;;;;;;;0.80;0.80;;;8.30;99.90;;;;;;4954297;28;20231;-66
2023/11/04 15:57:01;;;;;;;1.00;0.80;;;8.30;99.90;;;;;;4953772;29;20220;-66
2023/11/04 15:59:28;;;;;;;0.80;0.70;;;8.20;99.90;;;;;;4954053;29;20240;-66
2023/11/04 16:01:55;;;;;;;1.10;0.90;;;8.30;99.90;;;;;;4954338;28;20228;-64
2023/11/04 16:04:22;;;;;;;0.95;0.88;;;8.30;99.90;;;;;;4954355;29;20204;-64
2023/11/04 16:06:48;;;;;;;0.85;0.80;;;8.30;99.90;;;;;;4954340;28;20218;-64
2023/11/04 16:09:15;;;;;;;1.10;1.00;;;8.30;99.90;;;;;;4954146;29;20593;-64
2023/11/04 16:11:42;;;;;;;1.90;0.88;;;8.30;99.90;;;;;;4954168;29;20311;-64
2023/11/04 16:14:12;;;;;;;1.10;0.90;;;8.20;99.90;;;;;;4954088;28;20235;-64
2023/11/04 16:16:39;;;;;;;1.30;1.08;;;8.20;99.90;;;;;;4953251;29;20211;-64
2023/11/04 16:19:06;;;;;;;1.48;1.15;;;8.20;99.90;;;;;;4953790;28;20211;-64
2023/11/04 16:21:33;;;;;;;0.80;0.73;;;8.20;99.90;;;;;;4953830;29;20274;-64
2023/11/04 16:24:00;;;;;;;1.20;1.10;;;8.20;99.90;;;;;;4953926;29;20239;-64
2023/11/04 16:26:26;;;;;;;2.45;1.15;;;8.20;99.90;;;;;;4953438;29;20695;-64
2023/11/04 16:28:53;;;;;;;1.05;0.95;;;8.20;99.90;;;;;;4953762;29;20283;-64
2023/11/04 16:31:22;;;;;;;1.85;1.20;;;8.20;99.90;;;;;;4953434;29;20268;-66
2023/11/04 16:33:50;;;;;;;1.25;0.95;;;8.30;99.90;;;;;;4953882;28;20227;-66
2023/11/04 16:36:17;;;;;;;1.10;0.80;;;8.30;99.90;;;;;;4953480;29;20594;-66
2023/11/04 16:38:43;;;;;;;1.10;1.00;;;8.30;99.90;;;;;;4953434;29;20204;-66
2023/11/04 16:41:10;;;;;;;1.20;0.90;;;8.30;99.90;;;;;;4953483;29;20605;-65
2023/11/04 16:43:37;;;;;;;0.95;0.82;;;8.30;99.90;;;;;;4953631;29;20588;-66
2023/11/04 16:46:04;;;;;;;1.13;0.90;;;8.30;99.90;;;;;;4953127;29;20248;-66
2023/11/04 16:48:32;;;;;;;1.00;0.90;;;8.40;99.90;;;;;;4953027;28;20204;-65
2023/11/04 16:50:59;;;;;;;2.97;1.00;;;8.30;99.90;;;;;;4952722;28;20228;-64
2023/11/04 16:53:26;;;;;;;0.98;0.80;;;8.40;99.90;;;;;;4953117;29;20232;-64
2023/11/04 16:55:53;;;;;;;1.35;1.17;;;8.40;99.90;;;;;;4953061;29;20203;-64
2023/11/04 16:58:19;;;;;;;1.05;0.90;;;8.40;99.90;;;;;;4952503;29;20208;-64
2023/11/04 17:00:46;;;;;;;1.20;1.00;;;8.40;99.90;;;;;;4953175;29;20694;-64
2023/11/04 17:03:13;;;;;;;1.50;0.90;;;8.40;99.90;;;;;;4952752;29;20205;-63
2023/11/04 17:05:41;;;;;;;1.90;1.25;;;8.30;99.90;;;;;;4952830;29;20242;-64
2023/11/04 17:08:08;;;;;;;1.10;1.00;;;8.40;99.90;;;;;;4952860;29;20212;-63
2023/11/04 17:10:35;;;;;;;1.48;0.90;;;8.40;99.90;;;;;;4953093;29;20209;-65
2023/11/04 17:13:02;;;;;;;1.25;1.00;;;8.30;99.90;;;;;;4952937;29;20208;-65